Time;durP1;ratioP1;P1;durP2;ratioP2;P2;SDS_P1;SDS_P2;PMS_P1;PMS_P2;Temp;Humidity;BMP_temperature;BMP_pressure;BME280_temperature;BME280_humidity;BME280_pressure;Samples;Min_cycle;Max_cycle;Signal;HPM_P1;HPM_P2
2022/10/10 00:01:43;;;;;;;19.10;7.30;;;;;;;;;;4967368;28;20681;-87
2022/10/10 00:04:12;;;;;;;16.40;6.90;;;;;;;;;;4967488;28;20284;-87
2022/10/10 00:06:39;;;;;;;16.17;6.70;;;;;;;;;;4968914;28;20216;-87
2022/10/10 00:09:08;;;;;;;14.23;7.30;;;;;;;;;;4966165;28;20206;-87
2022/10/10 00:11:36;;;;;;;16.73;7.37;;;;;;;;;;4966688;28;20217;-86
2022/10/10 00:14:03;;;;;;;14.67;6.93;;;;;;;;;;4965149;28;20261;-87
2022/10/10 00:16:31;;;;;;;17.47;7.40;;;;;;;;;;4970591;28;20202;-87
2022/10/10 00:18:58;;;;;;;14.03;6.93;;;;;;;;;;4948283;28;20206;-87
2022/10/10 00:21:27;;;;;;;12.90;6.70;;;;;;;;;;4964814;28;20269;-88
2022/10/10 00:23:54;;;;;;;14.20;6.87;;;;;;;;;;4966819;28;20214;-88
2022/10/10 00:26:22;;;;;;;17.23;7.10;;;;;;;;;;4964340;28;20201;-87
2022/10/10 00:28:49;;;;;;;11.80;6.30;;;;;;;;;;4963299;28;20214;-88
2022/10/10 00:31:17;;;;;;;16.33;7.00;;;;;;;;;;4962294;28;20197;-88
2022/10/10 00:33:44;;;;;;;12.93;6.13;;;;;;;;;;4966548;28;20221;-87
2022/10/10 00:36:13;;;;;;;12.43;6.60;;;;;;;;;;4967969;28;20209;-87
2022/10/10 00:38:42;;;;;;;13.70;7.17;;;;;;;;;;4966862;28;20258;-86
2022/10/10 00:41:09;;;;;;;14.17;6.73;;;;;;;;;;4966868;28;20217;-89
2022/10/10 00:43:37;;;;;;;14.17;6.33;;;;;;;;;;4966180;28;20233;-87
2022/10/10 00:46:04;;;;;;;13.90;7.17;;;;;;;;;;4969745;28;20213;-88
2022/10/10 00:48:32;;;;;;;13.23;7.20;;;;;;;;;;4966835;28;20221;-87
2022/10/10 00:51:02;;;;;;;17.73;7.10;;;;;;;;;;4965094;28;20214;-87
2022/10/10 00:53:30;;;;;;;17.17;6.77;;;;;;;;;;4964852;28;20237;-87
2022/10/10 00:56:00;;;;;;;14.27;6.23;;;;;;;;;;4966345;28;20265;-89
2022/10/10 00:58:27;;;;;;;12.57;6.80;;;;;;;;;;4965555;28;20201;-88
2022/10/10 01:00:55;;;;;;;13.20;6.87;;;;;;;;;;4964911;28;20237;-87
2022/10/10 01:03:22;;;;;;;12.73;6.93;;;;;;;;;;4967216;28;20228;-86
2022/10/10 01:05:51;;;;;;;12.80;6.40;;;;;;;;;;4965984;28;20212;-87
2022/10/10 01:08:19;;;;;;;19.53;7.23;;;;;;;;;;4966582;28;20205;-88
2022/10/10 01:10:53;;;;;;;13.60;6.40;;;;;;;;;;4965862;28;20244;-87
2022/10/10 01:13:29;;;;;;;19.10;6.80;;;;;;;;;;4965481;28;20258;-88
2022/10/10 01:15:59;;;;;;;13.37;6.93;;;;;;;;;;4964425;28;20276;-88
2022/10/10 01:18:29;;;;;;;20.67;6.67;;;;;;;;;;4964095;28;20209;-86
2022/10/10 01:21:10;;;;;;;16.43;7.07;;;;;;;;;;4965844;28;20224;-87
2022/10/10 01:23:59;;;;;;;12.83;6.93;;;;;;;;;;4963215;28;20232;-88
2022/10/10 01:26:39;;;;;;;13.73;6.87;;;;;;;;;;4963706;28;20210;-88
2022/10/10 01:29:10;;;;;;;21.90;7.13;;;;;;;;;;4964101;28;20206;-87
2022/10/10 01:31:40;;;;;;;16.37;6.83;;;;;;;;;;4966279;28;20309;-88
2022/10/10 01:34:10;;;;;;;12.70;6.17;;;;;;;;;;4965506;28;20233;-86
2022/10/10 01:36:39;;;;;;;12.83;6.30;;;;;;;;;;4963984;28;20209;-87
2022/10/10 01:39:08;;;;;;;14.80;6.53;;;;;;;;;;4963472;28;20213;-88
2022/10/10 01:41:39;;;;;;;17.27;6.97;;;;;;;;;;4963439;28;20233;-87
2022/10/10 01:44:06;;;;;;;11.93;6.27;;;;;;;;;;4964934;28;20217;-87
2022/10/10 01:46:36;;;;;;;12.83;6.97;;;;;;;;;;4964566;28;20213;-87
2022/10/10 01:49:03;;;;;;;17.87;6.47;;;;;;;;;;4964182;28;20217;-88
2022/10/10 01:51:40;;;;;;;12.57;6.43;;;;;;;;;;4964708;28;20205;-88
2022/10/10 01:54:12;;;;;;;16.20;7.83;;;;;;;;;;4964519;28;20630;-87
2022/10/10 01:56:42;;;;;;;15.93;7.20;;;;;;;;;;4949225;28;20215;-87
2022/10/10 01:59:12;;;;;;;12.70;6.60;;;;;;;;;;4961911;28;20213;-88
2022/10/10 02:01:46;;;;;;;13.67;6.67;;;;;;;;;;4967475;28;20949;-86
2022/10/10 02:04:18;;;;;;;12.50;6.43;;;;;;;;;;4967244;28;20224;-88
2022/10/10 02:06:49;;;;;;;19.50;6.97;;;;;;;;;;4964552;28;20548;-89
2022/10/10 02:09:19;;;;;;;12.60;6.97;;;;;;;;;;4964156;28;20197;-87
2022/10/10 02:11:48;;;;;;;13.10;6.23;;;;;;;;;;4964373;28;20202;-87
2022/10/10 02:14:19;;;;;;;14.50;6.53;;;;;;;;;;4965392;28;20618;-88
2022/10/10 02:16:50;;;;;;;13.47;6.70;;;;;;;;;;4966098;28;20213;-88
2022/10/10 02:19:18;;;;;;;18.57;7.27;;;;;;;;;;4967026;28;20268;-88
2022/10/10 02:21:47;;;;;;;12.47;6.53;;;;;;;;;;4963646;28;20449;-88
2022/10/10 02:24:16;;;;;;;16.53;6.47;;;;;;;;;;4966793;28;20476;-87
2022/10/10 02:26:45;;;;;;;13.27;6.87;;;;;;;;;;4968852;28;20208;-88
2022/10/10 02:29:14;;;;;;;16.30;7.47;;;;;;;;;;4968214;28;20209;-88
2022/10/10 02:31:44;;;;;;;15.40;6.20;;;;;;;;;;4967165;28;20210;-88
2022/10/10 02:34:14;;;;;;;12.80;5.93;;;;;;;;;;4968961;28;20487;-89
2022/10/10 02:36:43;;;;;;;11.87;6.47;;;;;;;;;;4969359;28;20202;-89
2022/10/10 02:39:12;;;;;;;13.27;6.37;;;;;;;;;;4967681;28;20214;-88
2022/10/10 02:41:39;;;;;;;12.63;6.20;;;;;;;;;;4968380;28;20251;-87
2022/10/10 02:44:07;;;;;;;12.97;6.07;;;;;;;;;;4971380;28;20309;-87
2022/10/10 02:46:35;;;;;;;15.10;6.27;;;;;;;;;;4966483;28;20460;-87
2022/10/10 02:49:02;;;;;;;13.90;6.50;;;;;;;;;;4968476;28;20297;-89
2022/10/10 02:51:31;;;;;;;14.90;6.00;;;;;;;;;;4966884;28;20225;-88
2022/10/10 02:53:59;;;;;;;14.30;6.20;;;;;;;;;;4970002;28;20272;-90
2022/10/10 02:56:26;;;;;;;14.47;5.60;;;;;;;;;;4965724;28;20469;-88
2022/10/10 02:58:53;;;;;;;13.60;6.00;;;;;;;;;;4971077;28;20212;-89
2022/10/10 03:01:21;;;;;;;12.73;5.97;;;;;;;;;;4972915;28;20201;-88
2022/10/10 03:03:49;;;;;;;13.43;5.97;;;;;;;;;;4973469;28;20484;-88
2022/10/10 03:06:16;;;;;;;12.60;5.97;;;;;;;;;;4968415;28;20551;-89
2022/10/10 03:08:45;;;;;;;12.10;6.63;;;;;;;;;;4969088;28;20198;-87
2022/10/10 03:11:12;;;;;;;10.77;5.83;;;;;;;;;;4967992;28;20708;-88
2022/10/10 03:13:40;;;;;;;13.10;6.00;;;;;;;;;;4967633;28;20320;-87
2022/10/10 03:16:07;;;;;;;12.30;6.13;;;;;;;;;;4968147;28;20593;-89
2022/10/10 03:18:35;;;;;;;11.30;6.00;;;;;;;;;;4968223;28;20202;-88
2022/10/10 03:21:02;;;;;;;12.90;6.43;;;;;;;;;;4967044;28;20473;-88
2022/10/10 03:23:29;;;;;;;12.13;5.57;;;;;;;;;;4964990;28;20976;-88
2022/10/10 03:25:58;;;;;;;17.90;6.77;;;;;;;;;;4966668;28;20969;-89
2022/10/10 03:28:26;;;;;;;13.23;6.17;;;;;;;;;;4967945;28;20297;-87
2022/10/10 03:30:54;;;;;;;13.33;6.03;;;;;;;;;;4968556;28;20457;-88
2022/10/10 03:33:21;;;;;;;15.67;6.13;;;;;;;;;;4967818;28;21004;-89
2022/10/10 03:35:49;;;;;;;13.27;5.73;;;;;;;;;;4962552;28;20485;-89
2022/10/10 03:38:16;;;;;;;19.80;6.43;;;;;;;;;;4967348;28;20209;-88
2022/10/10 03:40:44;;;;;;;15.20;5.57;;;;;;;;;;4967376;28;20476;-87
2022/10/10 03:43:14;;;;;;;11.97;5.47;;;;;;;;;;4967792;28;21184;-87
2022/10/10 03:45:42;;;;;;;15.37;5.90;;;;;;;;;;4967304;28;20461;-86
2022/10/10 03:48:10;;;;;;;17.20;6.30;;;;;;;;;;4969031;28;20474;-86
2022/10/10 03:50:38;;;;;;;12.53;5.77;;;;;;;;;;4966608;28;20488;-87
2022/10/10 03:53:05;;;;;;;17.60;6.30;;;;;;;;;;4951906;28;20915;-87
2022/10/10 03:55:32;;;;;;;15.63;5.77;;;;;;;;;;4968236;28;20488;-90
2022/10/10 03:58:00;;;;;;;10.40;5.20;;;;;;;;;;4966905;28;20289;-90
2022/10/10 04:00:29;;;;;;;10.73;5.20;;;;;;;;;;4951460;28;20469;-90
2022/10/10 04:02:56;;;;;;;13.13;6.27;;;;;;;;;;4965799;28;21015;-90
2022/10/10 04:05:24;;;;;;;12.43;6.30;;;;;;;;;;4968011;28;20217;-89
2022/10/10 04:07:51;;;;;;;12.73;6.07;;;;;;;;;;4968045;28;20477;-88
2022/10/10 04:10:18;;;;;;;14.53;5.60;;;;;;;;;;4963158;28;20216;-88
2022/10/10 04:12:45;;;;;;;12.33;5.67;;;;;;;;;;4965787;28;20453;-89
2022/10/10 04:15:13;;;;;;;14.07;5.40;;;;;;;;;;4964488;28;20492;-90
2022/10/10 04:17:42;;;;;;;10.23;5.40;;;;;;;;;;4966348;28;20460;-89
2022/10/10 04:20:09;;;;;;;13.93;5.63;;;;;;;;;;4966097;28;20472;-89
2022/10/10 04:22:36;;;;;;;19.73;5.37;;;;;;;;;;4967769;28;20206;-88
2022/10/10 04:25:04;;;;;;;15.23;5.60;;;;;;;;;;4964384;28;20531;-90
2022/10/10 04:27:31;;;;;;;12.90;6.17;;;;;;;;;;4950286;28;20464;-88
2022/10/10 04:29:59;;;;;;;13.33;5.97;;;;;;;;;;4964186;28;20673;-88
2022/10/10 04:32:26;;;;;;;11.00;5.57;;;;;;;;;;4966164;28;20811;-89
2022/10/10 04:34:55;;;;;;;11.57;5.90;;;;;;;;;;4966232;28;20500;-87
2022/10/10 04:37:22;;;;;;;15.77;6.67;;;;;;;;;;4967413;28;20292;-88
2022/10/10 04:39:49;;;;;;;14.60;6.43;;;;;;;;;;4967005;28;20501;-87
2022/10/10 04:42:17;;;;;;;12.30;6.00;;;;;;;;;;4965444;28;20461;-89
2022/10/10 04:44:44;;;;;;;16.73;7.03;;;;;;;;;;4963956;28;21680;-90
2022/10/10 04:47:12;;;;;;;14.47;5.60;;;;;;;;;;4962751;28;20465;-88
2022/10/10 04:49:40;;;;;;;13.10;5.77;;;;;;;;;;4963655;28;20544;-88
2022/10/10 04:52:09;;;;;;;10.07;5.87;;;;;;;;;;4968564;28;20493;-89
2022/10/10 04:54:36;;;;;;;12.73;5.90;;;;;;;;;;4962703;28;20296;-88
2022/10/10 04:57:04;;;;;;;11.20;6.00;;;;;;;;;;4964992;28;20464;-89
2022/10/10 04:59:32;;;;;;;11.00;5.63;;;;;;;;;;4965134;28;20465;-88
2022/10/10 05:02:00;;;;;;;12.03;6.23;;;;;;;;;;4965835;28;20204;-88
2022/10/10 05:04:27;;;;;;;17.53;6.13;;;;;;;;;;4967717;28;20484;-88
2022/10/10 05:06:54;;;;;;;14.03;5.43;;;;;;;;;;4967235;28;20857;-88
2022/10/10 05:09:23;;;;;;;14.53;5.60;;;;;;;;;;4963779;28;20457;-88
2022/10/10 05:11:51;;;;;;;11.53;4.90;;;;;;;;;;4964645;28;20454;-89
2022/10/10 05:14:18;;;;;;;11.50;5.27;;;;;;;;;;4964413;28;20882;-88
2022/10/10 05:16:45;;;;;;;10.73;5.23;;;;;;;;;;4961116;28;20737;-88
2022/10/10 05:19:13;;;;;;;15.67;6.20;;;;;;;;;;4966413;28;20984;-88
2022/10/10 05:21:40;;;;;;;16.40;5.73;;;;;;;;;;4965030;28;21003;-88
2022/10/10 05:24:08;;;;;;;17.10;6.20;;;;;;;;;;4964537;28;20482;-87
2022/10/10 05:26:37;;;;;;;10.60;5.30;;;;;;;;;;4964803;28;20201;-87
2022/10/10 05:29:04;;;;;;;18.80;6.17;;;;;;;;;;4964292;28;20523;-88
2022/10/10 05:31:33;;;;;;;13.53;5.90;;;;;;;;;;4964752;28;20252;-88
2022/10/10 05:34:01;;;;;;;13.53;5.37;;;;;;;;;;4965032;28;20484;-88
2022/10/10 05:36:28;;;;;;;15.53;5.87;;;;;;;;;;4964047;28;20225;-88
2022/10/10 05:38:58;;;;;;;10.40;5.57;;;;;;;;;;4963542;28;20484;-88
2022/10/10 05:41:25;;;;;;;10.77;5.43;;;;;;;;;;4964704;28;20289;-88
2022/10/10 05:43:54;;;;;;;16.53;5.40;;;;;;;;;;4962801;28;20481;-88
2022/10/10 05:46:23;;;;;;;11.17;5.33;;;;;;;;;;4962295;28;20553;-88
2022/10/10 05:48:52;;;;;;;12.43;5.70;;;;;;;;;;4963735;28;20479;-88
2022/10/10 05:51:19;;;;;;;13.20;5.97;;;;;;;;;;4962824;28;20465;-88
2022/10/10 05:53:47;;;;;;;10.87;5.43;;;;;;;;;;4964636;28;20529;-88
2022/10/10 05:56:16;;;;;;;13.13;5.87;;;;;;;;;;4964226;28;20226;-88
2022/10/10 05:58:43;;;;;;;15.87;6.33;;;;;;;;;;4961069;28;20209;-88
2022/10/10 06:01:12;;;;;;;15.83;6.43;;;;;;;;;;4957327;28;20472;-88
2022/10/10 06:03:39;;;;;;;16.43;7.10;;;;;;;;;;4965133;28;20309;-90
2022/10/10 06:06:07;;;;;;;15.67;6.03;;;;;;;;;;4971087;28;20301;-89
2022/10/10 06:08:34;;;;;;;17.00;6.47;;;;;;;;;;4962187;28;20352;-87
2022/10/10 06:11:03;;;;;;;12.73;5.93;;;;;;;;;;4965869;28;20475;-86
2022/10/10 06:13:30;;;;;;;13.33;5.40;;;;;;;;;;4964034;28;20225;-88
2022/10/10 06:15:58;;;;;;;14.40;6.23;;;;;;;;;;4963794;28;20365;-86
2022/10/10 06:18:27;;;;;;;17.07;6.43;;;;;;;;;;4962359;28;20252;-84
2022/10/10 06:20:54;;;;;;;21.40;6.30;;;;;;;;;;4956548;28;21680;-87
2022/10/10 06:23:22;;;;;;;15.73;5.80;;;;;;;;;;4956081;28;20237;-89
2022/10/10 06:25:52;;;;;;;17.83;6.20;;;;;;;;;;4956545;28;20205;-87
2022/10/10 06:28:20;;;;;;;14.90;6.50;;;;;;;;;;4961867;28;20217;-88
2022/10/10 06:30:49;;;;;;;17.00;6.13;;;;;;;;;;4961361;28;20213;-86
2022/10/10 06:33:18;;;;;;;12.70;5.43;;;;;;;;;;4960197;28;20218;-88
2022/10/10 06:35:47;;;;;;;14.17;6.20;;;;;;;;;;4960978;28;20281;-87
2022/10/10 06:38:15;;;;;;;16.83;6.30;;;;;;;;;;4962173;28;20206;-87
2022/10/10 06:40:43;;;;;;;15.47;7.70;;;;;;;;;;4962119;28;20301;-87
2022/10/10 06:43:11;;;;;;;17.83;6.73;;;;;;;;;;4960308;28;20202;-87
2022/10/10 06:45:39;;;;;;;11.70;5.80;;;;;;;;;;4962208;28;20209;-87
2022/10/10 06:48:07;;;;;;;16.30;6.40;;;;;;;;;;4958255;28;20693;-87
2022/10/10 06:50:35;;;;;;;11.70;6.07;;;;;;;;;;4960826;28;20201;-88
2022/10/10 06:53:04;;;;;;;20.40;6.13;;;;;;;;;;4962156;28;20217;-85
2022/10/10 06:55:32;;;;;;;19.83;6.10;;;;;;;;;;4961790;28;20226;-87
2022/10/10 06:58:00;;;;;;;12.17;6.30;;;;;;;;;;4967249;28;20206;-86
2022/10/10 07:00:27;;;;;;;17.07;7.03;;;;;;;;;;4966822;28;20210;-88
2022/10/10 07:02:54;;;;;;;10.17;5.80;;;;;;;;;;4963444;28;20198;-86
2022/10/10 07:05:22;;;;;;;22.73;7.07;;;;;;;;;;4961518;28;20230;-86
2022/10/10 07:07:50;;;;;;;18.40;7.07;;;;;;;;;;4964214;28;20705;-87
2022/10/10 07:10:19;;;;;;;14.63;6.63;;;;;;;;;;4964107;28;20661;-86
2022/10/10 07:12:46;;;;;;;14.17;6.53;;;;;;;;;;4962499;28;20210;-88
2022/10/10 07:15:13;;;;;;;16.37;7.23;;;;;;;;;;4946416;28;20229;-89
2022/10/10 07:17:41;;;;;;;16.83;7.13;;;;;;;;;;4966179;28;20205;-88
2022/10/10 07:20:09;;;;;;;13.50;6.63;;;;;;;;;;4963138;28;20209;-87
2022/10/10 07:22:37;;;;;;;13.30;6.40;;;;;;;;;;4965074;28;20206;-89
2022/10/10 07:25:05;;;;;;;19.00;6.50;;;;;;;;;;4968224;28;20678;-87
2022/10/10 07:27:33;;;;;;;13.93;6.63;;;;;;;;;;4965102;28;20205;-86
2022/10/10 07:30:01;;;;;;;17.27;7.13;;;;;;;;;;4963808;28;20223;-88
2022/10/10 07:32:29;;;;;;;17.00;7.27;;;;;;;;;;4965405;28;20206;-87
2022/10/10 07:34:57;;;;;;;14.30;6.13;;;;;;;;;;4964718;28;20365;-87
2022/10/10 07:37:25;;;;;;;10.00;5.37;;;;;;;;;;4969774;28;20222;-87
2022/10/10 07:39:53;;;;;;;8.83;5.10;;;;;;;;;;4959525;28;20210;-87
2022/10/10 07:42:20;;;;;;;8.97;4.53;;;;;;;;;;4959960;28;20233;-86
2022/10/10 07:44:49;;;;;;;9.27;4.37;;;;;;;;;;4958222;28;20705;-87
2022/10/10 07:47:17;;;;;;;8.67;4.57;;;;;;;;;;4959795;28;20598;-88
2022/10/10 07:49:44;;;;;;;11.03;4.40;;;;;;;;;;4957804;28;20197;-87
2022/10/10 07:52:12;;;;;;;8.10;5.13;;;;;;;;;;4965698;28;20579;-87
2022/10/10 07:54:39;;;;;;;14.70;4.73;;;;;;;;;;4958951;28;20226;-88
2022/10/10 07:57:07;;;;;;;7.57;3.67;;;;;;;;;;4971150;28;20234;-86
2022/10/10 07:59:34;;;;;;;8.80;3.97;;;;;;;;;;4952902;28;20681;-87
2022/10/10 08:02:04;;;;;;;9.30;4.07;;;;;;;;;;4955671;28;20221;-87
2022/10/10 08:04:31;;;;;;;9.53;4.37;;;;;;;;;;4954329;28;20249;-87
2022/10/10 08:06:58;;;;;;;12.63;4.37;;;;;;;;;;4962587;28;20213;-89
2022/10/10 08:09:25;;;;;;;7.73;3.93;;;;;;;;;;4957073;28;20322;-88
2022/10/10 08:11:53;;;;;;;8.90;4.37;;;;;;;;;;4960820;28;20202;-87
2022/10/10 08:14:20;;;;;;;7.50;3.50;;;;;;;;;;4962236;28;20245;-88
2022/10/10 08:16:47;;;;;;;13.63;4.67;;;;;;;;;;4957275;28;20224;-87
2022/10/10 08:19:17;;;;;;;6.87;3.90;;;;;;;;;;4957737;28;20214;-88
2022/10/10 08:21:44;;;;;;;9.27;3.70;;;;;;;;;;4955761;28;20206;-86
2022/10/10 08:24:11;;;;;;;7.43;3.80;;;;;;;;;;4958406;28;20233;-88
2022/10/10 08:26:39;;;;;;;9.37;4.10;;;;;;;;;;4969526;28;20210;-87
2022/10/10 08:29:06;;;;;;;6.07;4.03;;;;;;;;;;4962916;28;20214;-86
2022/10/10 08:31:33;;;;;;;6.77;3.87;;;;;;;;;;4959835;28;20210;-87
2022/10/10 08:34:00;;;;;;;7.63;3.90;;;;;;;;;;4958616;28;20710;-87
2022/10/10 08:36:29;;;;;;;9.30;4.67;;;;;;;;;;4965630;28;20315;-87
2022/10/10 08:38:58;;;;;;;7.90;4.23;;;;;;;;;;4959311;28;20715;-87
2022/10/10 08:41:32;;;;;;;7.27;4.00;;;;;;;;;;4959453;28;20212;-88
2022/10/10 08:44:01;;;;;;;8.43;4.27;;;;;;;;;;4958497;28;20327;-89
2022/10/10 08:46:33;;;;;;;7.80;4.10;;;;;;;;;;4953969;28;20217;-87
2022/10/10 08:49:10;;;;;;;8.80;4.90;;;;;;;;;;4953929;28;20232;-87
2022/10/10 08:51:39;;;;;;;14.57;4.90;;;;;;;;;;4960534;28;20209;-86
2022/10/10 08:54:07;;;;;;;8.37;4.93;;;;;;;;;;4961071;28;20255;-87
2022/10/10 08:56:35;;;;;;;9.07;5.07;;;;;;;;;;4961065;28;20276;-86
2022/10/10 08:59:05;;;;;;;10.63;4.53;;;;;;;;;;4966723;28;20685;-87
2022/10/10 09:01:34;;;;;;;9.73;4.70;;;;;;;;;;4965840;28;20202;-88
2022/10/10 09:04:02;;;;;;;9.23;4.90;;;;;;;;;;4961297;28;20233;-87
2022/10/10 09:06:37;;;;;;;8.83;4.83;;;;;;;;;;4966883;28;20596;-86
2022/10/10 09:09:10;;;;;;;14.83;5.00;;;;;;;;;;4967882;28;20232;-88
2022/10/10 09:11:44;;;;;;;11.90;4.83;;;;;;;;;;4964063;28;20198;-87
2022/10/10 09:14:19;;;;;;;11.50;4.87;;;;;;;;;;4960168;28;20867;-88
2022/10/10 09:16:49;;;;;;;12.17;4.73;;;;;;;;;;4966180;28;20229;-87
2022/10/10 09:19:24;;;;;;;10.70;4.40;;;;;;;;;;4967402;28;20217;-87
2022/10/10 09:21:52;;;;;;;14.20;4.60;;;;;;;;;;4961533;28;20236;-87
2022/10/10 09:24:24;;;;;;;15.07;5.23;;;;;;;;;;4964791;28;20225;-85
2022/10/10 09:26:53;;;;;;;15.37;5.30;;;;;;;;;;4960026;28;20206;-86
2022/10/10 09:29:27;;;;;;;12.60;4.87;;;;;;;;;;4962373;28;20212;-87
2022/10/10 09:31:56;;;;;;;15.87;4.83;;;;;;;;;;4959389;28;20206;-88
2022/10/10 09:34:28;;;;;;;12.63;5.17;;;;;;;;;;5070394;23;20700;-87
2022/10/10 09:36:59;;;;;;;10.47;4.60;;;;;;;;;;4984327;28;20225;-86
2022/10/10 09:39:34;;;;;;;11.27;4.37;;;;;;;;;;4978231;28;20225;-84
2022/10/10 09:42:02;;;;;;;10.27;4.87;;;;;;;;;;4977830;28;20311;-88
2022/10/10 09:44:29;;;;;;;13.97;4.20;;;;;;;;;;4982221;28;20220;-88
2022/10/10 09:46:58;;;;;;;8.97;3.90;;;;;;;;;;4983873;28;20207;-87
2022/10/10 09:49:30;;;;;;;14.17;4.83;;;;;;;;;;4978770;28;20675;-90
2022/10/10 09:51:58;;;;;;;8.70;4.17;;;;;;;;;;4984194;28;20205;-89
2022/10/10 09:54:25;;;;;;;9.00;3.83;;;;;;;;;;4983470;28;20298;-87
2022/10/10 09:56:55;;;;;;;9.23;4.03;;;;;;;;;;4978591;28;20236;-89
2022/10/10 09:59:39;;;;;;;7.87;4.00;;;;;;;;;;4980468;28;21603;-88
2022/10/10 10:02:12;;;;;;;9.13;3.90;;;;;;;;;;4979289;28;20201;-89
2022/10/10 10:04:40;;;;;;;11.13;3.63;;;;;;;;;;4976857;28;20243;-89
2022/10/10 10:07:17;;;;;;;10.20;4.30;;;;;;;;;;4982355;28;20206;-89
2022/10/10 10:09:49;;;;;;;10.67;3.27;;;;;;;;;;4980385;28;20298;-91
2022/10/10 10:12:21;;;;;;;9.87;4.03;;;;;;;;;;4980062;28;20213;-90
2022/10/10 10:14:50;;;;;;;6.20;3.57;;;;;;;;;;4986193;28;20250;-90
2022/10/10 10:17:18;;;;;;;5.60;3.23;;;;;;;;;;4985374;28;20221;-91
2022/10/10 10:19:47;;;;;;;12.27;3.43;;;;;;;;;;4981420;28;20291;-91
2022/10/10 10:22:25;;;;;;;7.27;3.37;;;;;;;;;;4981192;28;20208;-91
2022/10/10 10:24:52;;;;;;;10.10;3.30;;;;;;;;;;4979311;28;20243;-92
2022/10/10 10:27:23;;;;;;;7.60;3.30;;;;;;;;;;4982921;28;20310;-92
2022/10/10 10:29:51;;;;;;;6.97;3.07;;;;;;;;;;4987063;28;20232;-91
2022/10/10 10:32:34;;;;;;;10.77;3.53;;;;;;;;;;4989205;28;20276;-92
2022/10/10 10:35:10;;;;;;;9.13;3.23;;;;;;;;;;4983408;28;20324;-90
2022/10/10 10:37:44;;;;;;;6.73;3.03;;;;;;;;;;4969391;28;20939;-89
2022/10/10 10:40:26;;;;;;;7.97;3.20;;;;;;;;;;4984932;28;20216;-90
2022/10/10 10:43:14;;;;;;;7.77;2.93;;;;;;;;;;4983468;28;20212;-89
2022/10/10 10:45:47;;;;;;;9.67;2.97;;;;;;;;;;4982178;28;20271;-90
2022/10/10 10:48:22;;;;;;;8.57;3.00;;;;;;;;;;4986593;28;20212;-89
2022/10/10 10:51:04;;;;;;;6.67;2.80;;;;;;;;;;4986728;28;20283;-90
2022/10/10 10:53:44;;;;;;;10.93;3.03;;;;;;;;;;4986967;28;20311;-88
2022/10/10 10:56:17;;;;;;;8.30;3.23;;;;;;;;;;4988587;28;20213;-89
2022/10/10 10:59:02;;;;;;;11.40;3.63;;;;;;;;;;4983328;28;20197;-89
2022/10/10 11:01:35;;;;;;;8.83;3.30;;;;;;;;;;4972013;28;20213;-89
2022/10/10 11:04:04;;;;;;;13.60;3.77;;;;;;;;;;4984764;28;20240;-89
2022/10/10 11:06:47;;;;;;;7.47;3.23;;;;;;;;;;4988319;28;20284;-90
2022/10/10 11:09:17;;;;;;;7.70;3.03;;;;;;;;;;4986017;28;20272;-87
2022/10/10 11:11:52;;;;;;;12.70;3.10;;;;;;;;;;4985587;28;20205;-89
2022/10/10 11:14:26;;;;;;;9.03;3.37;;;;;;;;;;4985754;28;20238;-88
2022/10/10 11:17:00;;;;;;;6.73;2.97;;;;;;;;;;4977340;28;20229;-90
2022/10/10 11:19:30;;;;;;;6.50;2.90;;;;;;;;;;4985107;28;20701;-90
2022/10/10 11:22:03;;;;;;;5.80;2.83;;;;;;;;;;4985134;28;20581;-88
2022/10/10 11:24:35;;;;;;;9.40;3.53;;;;;;;;;;4983652;28;20235;-89
2022/10/10 11:27:05;;;;;;;6.77;3.30;;;;;;;;;;4985608;28;20239;-89
2022/10/10 11:29:34;;;;;;;9.93;2.93;;;;;;;;;;4990378;28;20205;-88
2022/10/10 11:32:06;;;;;;;8.67;3.47;;;;;;;;;;4986127;28;20236;-89
2022/10/10 11:34:37;;;;;;;5.50;3.20;;;;;;;;;;4986549;28;20236;-91
2022/10/10 11:37:06;;;;;;;8.00;2.70;;;;;;;;;;4986844;28;20335;-87
2022/10/10 11:39:38;;;;;;;7.87;2.83;;;;;;;;;;4985689;28;20297;-88
2022/10/10 11:42:08;;;;;;;5.47;3.10;;;;;;;;;;4985680;28;20232;-89
2022/10/10 11:44:38;;;;;;;4.97;2.73;;;;;;;;;;4990938;28;20231;-90
2022/10/10 11:47:14;;;;;;;8.67;2.90;;;;;;;;;;4989059;28;20208;-89
2022/10/10 11:49:47;;;;;;;5.77;2.87;;;;;;;;;;4986287;28;20343;-86
2022/10/10 11:52:19;;;;;;;8.57;2.80;;;;;;;;;;4983936;28;20205;-87
2022/10/10 11:54:49;;;;;;;7.67;2.47;;;;;;;;;;4984962;28;20315;-87
2022/10/10 11:57:19;;;;;;;14.17;2.63;;;;;;;;;;4982175;28;20236;-87
2022/10/10 11:59:47;;;;;;;6.27;1.90;;;;;;;;;;4985329;28;20205;-86
2022/10/10 12:02:18;;;;;;;8.50;2.60;;;;;;;;;;4990821;28;20244;-89
2022/10/10 12:04:46;;;;;;;8.53;2.00;;;;;;;;;;4987656;28;20221;-88
2022/10/10 12:07:16;;;;;;;12.63;2.10;;;;;;;;;;4986749;28;20296;-90
2022/10/10 12:09:45;;;;;;;5.80;1.80;;;;;;;;;;4990620;28;20216;-88
2022/10/10 12:12:14;;;;;;;8.23;2.10;;;;;;;;;;4983027;28;20232;-89
2022/10/10 12:14:44;;;;;;;15.07;2.40;;;;;;;;;;4991046;28;20221;-88
2022/10/10 12:17:20;;;;;;;7.90;1.80;;;;;;;;;;4989122;28;20221;-88
2022/10/10 12:19:48;;;;;;;6.27;1.93;;;;;;;;;;4980989;28;20228;-89
2022/10/10 12:22:23;;;;;;;4.80;1.93;;;;;;;;;;4984655;28;20201;-88
2022/10/10 12:25:07;;;;;;;5.03;1.60;;;;;;;;;;4984632;28;20220;-89
2022/10/10 12:27:44;;;;;;;8.70;2.20;;;;;;;;;;4980270;28;20209;-90
2022/10/10 12:30:23;;;;;;;4.27;1.67;;;;;;;;;;4985258;28;20271;-90
2022/10/10 12:32:54;;;;;;;7.00;1.80;;;;;;;;;;4983734;28;20221;-90
2022/10/10 12:35:32;;;;;;;8.43;1.57;;;;;;;;;;4984858;28;20221;-91
2022/10/10 12:38:13;;;;;;;6.03;1.97;;;;;;;;;;4982387;28;20248;-90
2022/10/10 12:40:59;;;;;;;5.10;1.50;;;;;;;;;;5002833;28;20197;-88
2022/10/10 12:43:37;;;;;;;4.83;1.60;;;;;;;;;;4981271;28;20233;-87
2022/10/10 12:46:24;;;;;;;7.70;1.70;;;;;;;;;;4983304;28;20295;-87
2022/10/10 12:49:01;;;;;;;2.83;1.30;;;;;;;;;;4979256;28;20204;-87
2022/10/10 12:51:33;;;;;;;8.00;1.40;;;;;;;;;;4980757;28;20283;-92
2022/10/10 12:54:02;;;;;;;7.50;2.20;;;;;;;;;;4977470;28;20311;-89
2022/10/10 12:56:40;;;;;;;5.80;1.87;;;;;;;;;;4982055;28;20695;-89
2022/10/10 12:59:17;;;;;;;8.87;1.53;;;;;;;;;;4984728;28;20230;-87
2022/10/10 13:01:47;;;;;;;12.10;1.80;;;;;;;;;;4981806;28;20200;-88
2022/10/10 13:04:18;;;;;;;7.20;1.97;;;;;;;;;;4971806;28;20267;-88
2022/10/10 13:06:47;;;;;;;12.37;1.97;;;;;;;;;;4986627;28;21487;-88
2022/10/10 13:09:18;;;;;;;11.43;1.70;;;;;;;;;;4986011;28;20307;-93
2022/10/10 13:11:53;;;;;;;9.13;2.13;;;;;;;;;;4985366;28;20213;-90
2022/10/10 13:14:21;;;;;;;8.63;1.80;;;;;;;;;;4981854;28;20231;-90
2022/10/10 13:16:49;;;;;;;6.30;1.77;;;;;;;;;;4985270;28;20311;-90
2022/10/10 13:19:20;;;;;;;6.60;2.00;;;;;;;;;;4984777;28;20979;-90
2022/10/10 13:21:47;;;;;;;9.10;2.00;;;;;;;;;;4986531;28;20200;-88
2022/10/10 13:24:16;;;;;;;9.87;1.90;;;;;;;;;;4982919;28;20225;-87
2022/10/10 13:26:45;;;;;;;8.30;2.13;;;;;;;;;;4979868;28;20219;-88
2022/10/10 13:29:18;;;;;;;6.47;1.80;;;;;;;;;;4988355;28;20233;-88
2022/10/10 13:31:45;;;;;;;7.57;1.93;;;;;;;;;;4978731;28;20288;-88
2022/10/10 13:34:15;;;;;;;10.63;2.10;;;;;;;;;;4983004;28;20324;-87
2022/10/10 13:36:44;;;;;;;10.50;2.40;;;;;;;;;;4986934;28;20211;-88
2022/10/10 13:39:16;;;;;;;12.00;2.00;;;;;;;;;;4982506;28;20204;-88
2022/10/10 13:41:44;;;;;;;10.73;2.10;;;;;;;;;;4981258;28;20769;-91
2022/10/10 13:44:14;;;;;;;11.63;2.30;;;;;;;;;;4979064;28;20286;-89
2022/10/10 13:46:42;;;;;;;9.53;2.17;;;;;;;;;;4971030;28;20208;-88
2022/10/10 13:49:14;;;;;;;9.90;1.83;;;;;;;;;;4965552;28;20603;-88
2022/10/10 13:51:43;;;;;;;11.40;2.30;;;;;;;;;;4952867;28;20255;-88
2022/10/10 13:54:25;;;;;;;7.10;1.70;;;;;;;;;;4971726;28;21342;-89
2022/10/10 13:56:54;;;;;;;11.27;2.40;;;;;;;;;;4973045;28;20928;-89
2022/10/10 13:59:22;;;;;;;14.63;2.70;;;;;;;;;;4973963;28;20216;-88
2022/10/10 14:01:55;;;;;;;15.07;2.30;;;;;;;;;;4976638;28;20232;-90
2022/10/10 14:04:24;;;;;;;11.57;1.93;;;;;;;;;;4976925;28;20228;-90
2022/10/10 14:07:00;;;;;;;9.70;2.17;;;;;;;;;;4967880;28;20591;-90
2022/10/10 14:09:31;;;;;;;10.40;1.87;;;;;;;;;;4973290;28;20235;-92
2022/10/10 14:12:00;;;;;;;13.93;2.30;;;;;;;;;;4974266;28;20670;-90
2022/10/10 14:14:34;;;;;;;10.07;1.97;;;;;;;;;;4973337;28;20245;-90
2022/10/10 14:17:02;;;;;;;13.13;2.47;;;;;;;;;;4956624;28;20553;-89
2022/10/10 14:19:30;;;;;;;11.17;2.20;;;;;;;;;;4963648;28;20217;-91
2022/10/10 14:21:58;;;;;;;11.23;2.67;;;;;;;;;;4976139;28;20210;-90
2022/10/10 14:24:25;;;;;;;13.07;2.37;;;;;;;;;;4977855;28;20718;-91
2022/10/10 14:26:53;;;;;;;11.50;2.93;;;;;;;;;;4973635;28;21537;-91
2022/10/10 14:29:24;;;;;;;11.90;2.50;;;;;;;;;;4975872;28;20227;-91
2022/10/10 14:31:51;;;;;;;12.37;2.07;;;;;;;;;;4982429;28;20304;-90
2022/10/10 14:34:19;;;;;;;16.10;2.40;;;;;;;;;;4981207;28;20331;-91
2022/10/10 14:36:46;;;;;;;9.13;2.20;;;;;;;;;;4974446;28;20209;-91
2022/10/10 14:39:14;;;;;;;14.43;2.90;;;;;;;;;;4974983;28;20687;-90
2022/10/10 14:41:42;;;;;;;10.57;2.50;;;;;;;;;;4985140;28;20578;-90
2022/10/10 14:44:09;;;;;;;8.73;2.20;;;;;;;;;;4983858;28;20225;-91
2022/10/10 14:46:40;;;;;;;14.03;2.30;;;;;;;;;;5000538;28;20213;-91
2022/10/10 14:49:08;;;;;;;14.20;2.60;;;;;;;;;;4989482;28;20224;-90